createdAt,value
2022-11-04T00:00:30.167Z,53.53
2022-11-04T00:03:20.495Z,57.35
2022-11-04T00:06:11.011Z,55.20
2022-11-04T00:09:01.017Z,56.10
2022-11-04T00:12:08.493Z,54.33
2022-11-04T00:15:19.710Z,52.03
2022-11-04T00:18:08.778Z,58.28
2022-11-04T00:21:16.682Z,54.67
2022-11-04T00:24:24.965Z,54.25
2022-11-04T00:27:34.541Z,57.58
2022-11-04T00:30:23.576Z,56.78
2022-11-04T00:33:28.020Z,59.55
2022-11-04T00:36:18.188Z,59.40
2022-11-04T00:39:08.124Z,58.70
2022-11-04T00:41:56.813Z,56.13
2022-11-04T00:44:47.499Z,55.35
2022-11-04T00:47:36.536Z,56.85
2022-11-04T00:50:26.720Z,54.35
2022-11-04T00:53:16.248Z,55.40
2022-11-04T00:56:07.847Z,58.88
2022-11-04T00:58:56.809Z,59.45
2022-11-04T01:01:48.681Z,57.72
2022-11-04T01:04:38.866Z,54.55
2022-11-04T01:07:28.341Z,53.33
2022-11-04T01:10:17.468Z,55.60
2022-11-04T01:13:06.878Z,54.50
2022-11-04T01:15:58.947Z,52.42
2022-11-04T01:18:48.777Z,48.65
2022-11-04T01:21:37.776Z,52.78
2022-11-04T01:24:26.778Z,53.33
2022-11-04T01:27:16.035Z,47.75
2022-11-04T01:30:06.216Z,53.47
2022-11-04T01:32:55.326Z,52.25
2022-11-04T01:35:48.368Z,52.65
2022-11-04T01:38:37.946Z,49.40
2022-11-04T01:41:31.204Z,56.25
2022-11-04T01:44:55.800Z,55.85
2022-11-04T01:48:11.271Z,60.28
2022-11-04T01:51:01.816Z,53.55
2022-11-04T01:53:54.920Z,57.63
2022-11-04T01:56:45.359Z,50.38
2022-11-04T01:59:38.565Z,58.80
2022-11-04T02:02:27.295Z,52.05
2022-11-04T02:05:16.044Z,55.50
2022-11-04T02:08:07.559Z,55.28
2022-11-04T02:11:00.973Z,57.80
2022-11-04T02:13:50.037Z,67.95
2022-11-04T02:16:45.729Z,68.18
2022-11-04T02:19:52.701Z,66.32
2022-11-04T02:23:18.819Z,67.90
2022-11-04T02:26:29.727Z,62.72
2022-11-04T02:29:43.832Z,62.00
2022-11-04T02:33:02.245Z,59.85
2022-11-04T02:36:00.996Z,64.75
2022-11-04T02:39:01.695Z,65.70
2022-11-04T02:42:22.510Z,64.43
2022-11-04T02:45:20.311Z,60.90
2022-11-04T02:48:13.548Z,62.20
2022-11-04T02:51:27.581Z,65.63
2022-11-04T02:54:23.388Z,63.47
2022-11-04T02:57:17.445Z,58.38
2022-11-04T03:00:09.174Z,48.58
2022-11-04T03:03:25.974Z,56.50
2022-11-04T03:06:17.041Z,55.70
2022-11-04T03:09:06.174Z,53.60
2022-11-04T03:11:59.319Z,52.28
2022-11-04T03:15:00.462Z,54.88
2022-11-04T03:18:00.478Z,55.58
2022-11-04T03:20:50.554Z,50.80
2022-11-04T03:23:40.848Z,56.13
2022-11-04T03:27:17.415Z,59.13
2022-11-04T03:30:13.823Z,58.00
2022-11-04T03:33:28.543Z,49.40
2022-11-04T03:36:18.723Z,48.20
2022-11-04T03:39:08.315Z,49.35
2022-11-04T03:42:02.225Z,49.35
2022-11-04T03:44:52.941Z,47.50
2022-11-04T03:47:42.626Z,48.25
2022-11-04T03:50:34.015Z,48.63
2022-11-04T03:56:52.310Z,71.22
2022-11-04T03:59:46.806Z,82.63
2022-11-04T04:02:54.922Z,75.88
2022-11-04T04:05:56.866Z,53.95
2022-11-04T04:08:56.426Z,24.05
2022-11-04T04:11:56.516Z,25.10
2022-11-04T04:14:52.020Z,13.70
2022-11-04T04:17:46.957Z,9.68
2022-11-04T04:20:37.536Z,8.73
2022-11-04T04:23:48.309Z,10.18
2022-11-04T04:26:57.981Z,14.68
2022-11-04T04:29:55.355Z,21.75
2022-11-04T04:33:00.657Z,37.55
2022-11-04T04:35:54.604Z,52.70
2022-11-04T04:39:03.216Z,50.35
2022-11-04T04:42:12.262Z,49.10
2022-11-04T04:45:05.492Z,52.03
2022-11-04T04:47:54.882Z,52.95
2022-11-04T04:50:46.617Z,44.13
2022-11-04T04:53:36.161Z,29.83
2022-11-04T04:56:24.918Z,12.25
2022-11-04T04:59:14.655Z,9.20
2022-11-04T05:02:04.826Z,9.30
2022-11-04T05:04:53.931Z,11.20
2022-11-04T05:07:43.840Z,10.82
2022-11-04T05:10:33.788Z,9.38
2022-11-04T05:13:30.902Z,8.75
2022-11-04T05:16:19.525Z,7.88
2022-11-04T05:19:09.340Z,10.98
2022-11-04T05:21:58.289Z,7.82
2022-11-04T05:24:47.339Z,6.10
2022-11-04T05:27:36.347Z,5.72
2022-11-04T05:30:25.483Z,6.78
2022-11-04T05:33:14.754Z,14.13
2022-11-04T05:36:14.935Z,14.15
2022-11-04T05:39:06.814Z,10.20
2022-11-04T05:41:55.973Z,15.70
2022-11-04T05:44:45.159Z,8.27
2022-11-04T05:47:34.578Z,8.02
2022-11-04T05:50:23.556Z,6.50
2022-11-04T05:53:12.756Z,6.18
2022-11-04T05:56:01.858Z,7.63
2022-11-04T05:58:51.409Z,9.65
2022-11-04T06:01:42.677Z,12.20
2022-11-04T06:04:32.828Z,13.07
2022-11-04T06:07:22.049Z,13.32
2022-11-04T06:10:11.122Z,13.27
2022-11-04T06:13:00.557Z,12.77
2022-11-04T06:15:49.931Z,14.82
2022-11-04T06:18:39.421Z,14.73
2022-11-04T06:21:31.718Z,15.93
2022-11-04T06:24:20.757Z,14.70
2022-11-04T06:27:10.617Z,15.65
2022-11-04T06:30:01.121Z,18.42
2022-11-04T06:32:50.425Z,16.77
2022-11-04T06:35:40.218Z,18.88
2022-11-04T06:38:32.200Z,21.42
2022-11-04T06:41:23.670Z,14.40
2022-11-04T06:44:12.975Z,20.27
2022-11-04T06:47:01.797Z,15.13
2022-11-04T06:49:52.097Z,19.17
2022-11-04T06:52:42.521Z,14.73
2022-11-04T06:55:32.357Z,11.35
2022-11-04T06:58:22.088Z,13.63
2022-11-04T07:01:15.926Z,10.00
2022-11-04T07:04:08.414Z,19.58
2022-11-04T07:06:57.817Z,13.95
2022-11-04T07:09:46.913Z,13.07
2022-11-04T07:12:39.382Z,13.68
2022-11-04T07:15:28.566Z,14.77
2022-11-04T07:18:17.869Z,13.18
2022-11-04T07:21:10.551Z,16.67
2022-11-04T07:23:59.784Z,19.88
2022-11-04T07:26:49.630Z,17.67
2022-11-04T07:29:40.369Z,23.10
2022-11-04T07:32:30.007Z,32.97
2022-11-04T07:35:28.811Z,32.13
2022-11-04T07:38:18.362Z,30.17
2022-11-04T07:41:08.094Z,18.52
2022-11-04T07:44:00.493Z,19.23
2022-11-04T07:46:50.675Z,21.77
2022-11-04T07:49:42.615Z,18.02
2022-11-04T07:52:32.493Z,24.75
2022-11-04T07:55:22.629Z,23.13
2022-11-04T07:58:12.012Z,20.90
2022-11-04T08:01:20.168Z,21.08
2022-11-04T08:04:09.614Z,19.40
2022-11-04T08:07:25.128Z,24.95
2022-11-04T08:10:14.220Z,23.45
2022-11-04T08:13:07.795Z,21.33
2022-11-04T08:15:58.683Z,22.25
2022-11-04T08:18:49.539Z,22.48
2022-11-04T08:21:38.940Z,23.23
2022-11-04T08:24:27.947Z,30.70
2022-11-04T08:27:17.084Z,32.53
2022-11-04T08:30:06.979Z,36.90
2022-11-04T08:32:56.061Z,33.28
2022-11-04T08:35:46.362Z,34.65
2022-11-04T08:38:36.408Z,36.75
2022-11-04T08:41:30.455Z,38.15
2022-11-04T08:44:19.350Z,38.85
2022-11-04T08:47:08.380Z,37.20
2022-11-04T08:49:57.682Z,44.90
2022-11-04T08:52:47.041Z,41.60
2022-11-04T08:55:37.326Z,43.70
2022-11-04T08:58:26.487Z,42.25
2022-11-04T09:01:15.715Z,35.70
2022-11-04T09:04:05.606Z,53.33
2022-11-04T09:06:58.050Z,43.22
2022-11-04T09:09:47.929Z,48.22
2022-11-04T09:12:38.202Z,46.30
2022-11-04T09:15:53.256Z,47.17
2022-11-04T09:18:42.755Z,60.80
2022-11-04T09:21:32.528Z,66.75
2022-11-04T09:24:21.656Z,52.15
2022-11-04T09:27:11.539Z,56.10
2022-11-04T09:30:01.025Z,46.83
2022-11-04T09:32:52.733Z,50.42
2022-11-04T09:35:42.167Z,42.08
2022-11-04T09:38:32.262Z,51.40
2022-11-04T09:41:59.423Z,58.85
2022-11-04T09:45:21.271Z,64.22
2022-11-04T09:48:23.434Z,55.50
2022-11-04T09:51:26.571Z,48.28
2022-11-04T09:54:36.230Z,60.05
2022-11-04T09:57:26.963Z,57.85
2022-11-04T10:00:19.254Z,53.42
2022-11-04T10:03:26.129Z,51.08
2022-11-04T10:06:33.107Z,55.15
2022-11-04T10:09:40.377Z,49.80
2022-11-04T10:12:51.255Z,53.83
2022-11-04T10:16:03.048Z,48.83
2022-11-04T10:18:52.281Z,50.05
2022-11-04T10:21:56.258Z,73.45
2022-11-04T10:25:36.906Z,66.45
2022-11-04T10:28:44.421Z,67.78
2022-11-04T10:31:34.348Z,63.75
2022-11-04T10:34:44.439Z,80.03
2022-11-04T10:37:33.387Z,68.47
2022-11-04T10:40:34.449Z,76.97
2022-11-04T10:43:30.314Z,95.25
2022-11-04T10:46:48.108Z,85.18
2022-11-04T10:50:13.962Z,79.50
2022-11-04T10:53:41.934Z,71.03
2022-11-04T10:56:45.047Z,87.18
2022-11-04T10:59:59.596Z,73.30
2022-11-04T11:02:52.554Z,60.90
2022-11-04T11:05:41.823Z,71.47
2022-11-04T11:08:34.706Z,78.55
2022-11-04T11:11:41.497Z,81.32
2022-11-04T11:14:31.605Z,72.13
2022-11-04T11:17:48.446Z,64.82
2022-11-04T11:20:39.448Z,87.93
2022-11-04T11:23:40.123Z,88.63
2022-11-04T11:26:33.464Z,81.78
2022-11-04T11:29:28.150Z,69.72
2022-11-04T11:32:38.033Z,69.95
2022-11-04T11:35:44.617Z,82.07
2022-11-04T11:38:35.769Z,66.28
2022-11-04T11:41:32.253Z,66.18
2022-11-04T11:44:48.255Z,61.58
2022-11-04T11:47:39.569Z,67.55
2022-11-04T11:50:35.502Z,62.60
2022-11-04T11:53:26.380Z,73.32
2022-11-04T11:57:12.103Z,64.53
2022-11-04T12:11:05.051Z,56.38
2022-11-04T12:13:59.152Z,52.05
2022-11-04T12:17:05.649Z,56.78
2022-11-04T12:20:14.321Z,56.22
2022-11-04T12:23:07.603Z,63.25
2022-11-04T12:26:19.163Z,69.20
2022-11-04T12:29:33.230Z,64.20
2022-11-04T12:32:34.315Z,77.95
2022-11-04T12:35:33.358Z,79.30
2022-11-04T12:38:59.541Z,77.10
2022-11-04T12:42:19.549Z,65.82
2022-11-04T12:45:41.006Z,62.88
2022-11-04T12:48:57.759Z,48.58
2022-11-04T12:51:54.460Z,43.97
2022-11-04T12:55:05.211Z,44.05
2022-11-04T12:58:03.893Z,40.85
2022-11-04T13:01:03.385Z,43.45
2022-11-04T13:04:11.144Z,45.80
2022-11-04T13:07:03.455Z,50.45
2022-11-04T13:09:58.393Z,62.22
2022-11-04T13:12:49.696Z,57.13
2022-11-04T13:15:50.238Z,44.97
2022-11-04T13:18:42.180Z,45.00
2022-11-04T13:21:35.404Z,49.28
2022-11-04T13:24:31.507Z,33.10
2022-11-04T13:27:24.668Z,37.47
2022-11-04T13:30:39.139Z,34.88
2022-11-04T13:34:04.549Z,24.83
2022-11-04T13:37:09.116Z,26.50
2022-11-04T13:40:07.624Z,23.85
2022-11-04T13:43:40.900Z,26.70
2022-11-04T13:46:32.775Z,26.80
2022-11-04T13:49:34.699Z,29.65
2022-11-04T13:52:30.161Z,28.70
2022-11-04T13:55:23.224Z,34.72
2022-11-04T13:58:27.467Z,27.83
2022-11-04T14:01:20.882Z,27.58
2022-11-04T14:04:26.488Z,27.20
2022-11-04T14:07:19.509Z,28.65
2022-11-04T14:10:47.394Z,31.63
2022-11-04T14:13:46.766Z,32.53
2022-11-04T14:16:42.819Z,34.55
2022-11-04T14:20:01.069Z,32.50
2022-11-04T14:22:59.377Z,34.45
2022-11-04T14:26:02.440Z,36.33
2022-11-04T14:29:28.381Z,41.25
2022-11-04T14:32:33.893Z,35.25
2022-11-04T14:35:23.287Z,36.50
2022-11-04T14:38:32.596Z,33.63
2022-11-04T14:42:03.033Z,35.55
2022-11-04T14:44:52.614Z,32.80
2022-11-04T14:47:45.830Z,37.42
2022-11-04T14:50:35.096Z,37.38
2022-11-04T14:53:34.464Z,39.10
2022-11-04T14:56:24.978Z,37.95
2022-11-04T14:59:32.374Z,38.63
2022-11-04T15:02:27.167Z,42.00
2022-11-04T15:05:30.351Z,38.72
2022-11-04T15:08:55.067Z,36.45
2022-11-04T15:12:03.174Z,37.55
2022-11-04T15:14:54.887Z,42.00
2022-11-04T15:17:44.015Z,42.38
2022-11-04T15:20:34.058Z,39.60
2022-11-04T15:23:35.717Z,36.08
2022-11-04T15:26:31.637Z,45.28
2022-11-04T15:29:24.282Z,36.95
2022-11-04T15:32:22.660Z,34.42
2022-11-04T15:35:14.170Z,34.10
2022-11-04T15:38:04.784Z,34.75
2022-11-04T15:40:54.077Z,31.80
2022-11-04T15:43:43.401Z,34.28
2022-11-04T15:46:33.030Z,30.83
2022-11-04T15:49:30.183Z,33.10
2022-11-04T15:52:28.716Z,26.83
2022-11-04T15:55:31.628Z,34.20
2022-11-04T15:58:21.155Z,29.05
2022-11-04T16:01:15.920Z,31.77
2022-11-04T16:04:07.701Z,31.83
2022-11-04T16:07:12.135Z,29.33
2022-11-04T16:10:08.458Z,30.55
2022-11-04T16:13:04.380Z,26.90
2022-11-04T16:16:01.129Z,27.45
2022-11-04T16:18:55.931Z,32.13
2022-11-04T16:21:45.132Z,29.70
2022-11-04T16:24:38.236Z,27.33
2022-11-04T16:27:27.975Z,38.03
2022-11-04T16:30:23.055Z,32.03
2022-11-04T16:33:17.669Z,32.67
2022-11-04T16:36:18.649Z,28.33
2022-11-04T16:39:10.631Z,34.70
2022-11-04T16:42:01.073Z,27.23
2022-11-04T16:44:56.586Z,30.55
2022-11-04T16:47:46.371Z,32.17
2022-11-04T16:50:36.008Z,32.70
2022-11-04T16:53:25.320Z,30.67
2022-11-04T16:56:14.321Z,29.88
2022-11-04T16:59:04.157Z,32.30
2022-11-04T17:01:52.997Z,29.48
2022-11-04T17:04:41.938Z,30.38
2022-11-04T17:07:51.448Z,32.45
2022-11-04T17:10:44.090Z,33.10
2022-11-04T17:13:36.741Z,29.20
2022-11-04T17:16:26.238Z,31.35
2022-11-04T17:19:18.493Z,25.58
2022-11-04T17:22:09.491Z,27.95
2022-11-04T17:24:59.141Z,28.45
2022-11-04T17:27:48.689Z,27.90
2022-11-04T17:30:39.864Z,29.90
2022-11-04T17:33:31.035Z,32.80
2022-11-04T17:36:20.982Z,31.63
2022-11-04T17:39:09.854Z,29.83
2022-11-04T17:42:16.834Z,30.67
2022-11-04T17:45:06.381Z,31.10
2022-11-04T17:47:55.732Z,30.38
2022-11-04T17:50:45.969Z,32.92
2022-11-04T17:53:35.410Z,31.27
2022-11-04T17:56:25.364Z,31.35
2022-11-04T17:59:16.810Z,31.60
2022-11-04T18:02:06.172Z,31.20
2022-11-04T18:04:55.349Z,26.83
2022-11-04T18:07:44.558Z,31.90
2022-11-04T18:10:34.868Z,28.63
2022-11-04T18:13:26.095Z,29.23
2022-11-04T18:16:17.033Z,25.35
2022-11-04T18:19:06.812Z,23.83
2022-11-04T18:21:56.776Z,29.30
2022-11-04T18:24:46.764Z,25.52
2022-11-04T18:27:35.495Z,31.63
2022-11-04T18:30:25.411Z,25.98
2022-11-04T18:33:15.173Z,24.88
2022-11-04T18:36:06.431Z,26.88
2022-11-04T18:38:56.221Z,30.50
2022-11-04T18:41:47.053Z,30.50
2022-11-04T18:44:36.955Z,28.02
2022-11-04T18:47:28.637Z,26.42
2022-11-04T18:50:18.347Z,25.67
2022-11-04T18:53:08.049Z,26.48
2022-11-04T18:56:04.263Z,24.90
2022-11-04T18:58:53.215Z,24.10
2022-11-04T19:01:43.664Z,26.27
2022-11-04T19:04:34.176Z,19.15
2022-11-04T19:07:23.189Z,22.00
2022-11-04T19:10:13.708Z,18.52
2022-11-04T19:13:21.469Z,18.42
2022-11-04T19:16:13.626Z,21.67
2022-11-04T19:19:06.276Z,17.52
2022-11-04T19:21:55.524Z,17.08
2022-11-04T19:24:44.954Z,16.25
2022-11-04T19:27:34.901Z,16.85
2022-11-04T19:30:25.096Z,20.27
2022-11-04T19:33:15.808Z,19.25
2022-11-04T19:36:05.809Z,16.60
2022-11-04T19:38:56.206Z,14.13
2022-11-04T19:42:03.201Z,18.67
2022-11-04T19:44:53.284Z,17.65
2022-11-04T19:47:42.451Z,19.48
2022-11-04T19:50:32.004Z,14.95
2022-11-04T19:53:21.682Z,23.70
2022-11-04T19:56:16.600Z,18.17
2022-11-04T19:59:06.718Z,20.85
2022-11-04T20:01:55.922Z,22.33
2022-11-04T20:04:48.679Z,19.45
2022-11-04T20:07:41.102Z,22.52
2022-11-04T20:10:29.750Z,19.40
2022-11-04T20:13:38.495Z,22.15
2022-11-04T20:16:32.547Z,19.73
2022-11-04T20:19:23.045Z,19.83
2022-11-04T20:22:12.448Z,22.63
2022-11-04T20:25:01.489Z,20.73
2022-11-04T20:27:50.791Z,25.02
2022-11-04T20:30:42.867Z,19.50
2022-11-04T20:33:34.272Z,22.02
2022-11-04T20:36:25.916Z,17.52
2022-11-04T20:39:17.928Z,20.35
2022-11-04T20:42:07.099Z,19.65
2022-11-04T20:44:56.228Z,17.92
2022-11-04T20:47:45.350Z,20.50
2022-11-04T20:50:34.722Z,20.85
2022-11-04T20:53:24.248Z,21.95
2022-11-04T20:56:18.253Z,29.15
2022-11-04T20:59:08.673Z,27.05
2022-11-04T21:01:58.134Z,25.00
2022-11-04T21:04:47.151Z,32.60
2022-11-04T21:07:40.060Z,41.08
2022-11-04T21:10:29.276Z,38.72
2022-11-04T21:13:20.553Z,43.22
2022-11-04T21:16:10.127Z,45.03
2022-11-04T21:19:01.883Z,50.53
2022-11-04T21:21:51.950Z,52.42
2022-11-04T21:24:41.778Z,39.03
2022-11-04T21:27:30.568Z,38.67
2022-11-04T21:30:19.880Z,39.40
2022-11-04T21:33:09.462Z,39.92
2022-11-04T21:36:05.973Z,34.20
2022-11-04T21:38:56.295Z,32.65
2022-11-04T21:41:45.593Z,32.85
2022-11-04T21:44:35.285Z,33.97
2022-11-04T21:47:24.849Z,33.72
2022-11-04T21:50:18.049Z,28.90
2022-11-04T21:53:07.878Z,31.50
2022-11-04T21:55:57.065Z,32.40
2022-11-04T21:58:47.645Z,36.63
2022-11-04T22:01:36.795Z,38.33
2022-11-04T22:04:28.231Z,34.72
2022-11-04T22:07:36.965Z,41.80
2022-11-04T22:10:26.781Z,44.95
2022-11-04T22:13:18.533Z,44.40
2022-11-04T22:16:21.028Z,41.20
2022-11-04T22:19:13.165Z,39.65
2022-11-04T22:22:02.896Z,43.55
2022-11-04T22:25:04.032Z,40.28
2022-11-04T22:27:53.819Z,43.92
2022-11-04T22:30:44.506Z,41.22
2022-11-04T22:33:33.506Z,37.80
2022-11-04T22:36:24.258Z,41.42
2022-11-04T22:39:16.343Z,41.03
2022-11-04T22:42:06.633Z,44.42
2022-11-04T22:44:56.345Z,41.40
2022-11-04T22:47:45.607Z,46.25
2022-11-04T22:50:35.844Z,50.63
2022-11-04T22:53:25.225Z,44.50
2022-11-04T22:56:15.659Z,46.00
2022-11-04T22:59:05.477Z,45.67
2022-11-04T23:01:55.045Z,35.25
2022-11-04T23:04:46.789Z,36.03
2022-11-04T23:07:35.916Z,31.45
2022-11-04T23:10:47.023Z,29.92
2022-11-04T23:13:54.431Z,31.73
2022-11-04T23:17:04.612Z,34.63
2022-11-04T23:19:53.664Z,34.22
2022-11-04T23:23:03.902Z,31.58
2022-11-04T23:25:52.715Z,25.90
2022-11-04T23:29:00.202Z,24.70
2022-11-04T23:31:49.571Z,20.20
2022-11-04T23:34:56.467Z,19.08
2022-11-04T23:37:47.522Z,17.88
2022-11-04T23:40:36.986Z,15.10
2022-11-04T23:43:26.318Z,15.20
2022-11-04T23:46:39.447Z,12.93
2022-11-04T23:49:50.310Z,15.45
2022-11-04T23:52:57.207Z,14.75
2022-11-04T23:56:04.432Z,20.40
2022-11-04T23:59:12.134Z,22.40
